Bruce Township, Michigan
Current Conditions -  °F | °C
As of 5:55 PM on Monday 22 Dec 2014 (Local Time) from KMTC Reporting Station
Broken Clouds Broken Clouds  
Wind Chill: 26°   Ceiling: 17000
Heat Index: 34°   Visibility: 10mi
Dew Point: 33°   Wind: 9mph
Humidity: 99%   Direction: 100°E
Pressure: 29.94"   Gusts: NA
Location:  42.8454°N, 83.0393°W
Report Text: KMTC 222255Z 10008KT 10SM SCT120 BKN170 01/01 A2994 RMK SLP153 T00090007
Loading
Personal Weather Stations






























Interactive Weather Map New forecast layout! Learn more

10-Day Weather Forecast

Advertisements
Track Severe Weather on mobile